createdAt,value
2023-03-07T00:01:09.799Z,4.80
2023-03-07T00:03:37.142Z,4.70
2023-03-07T00:06:10.795Z,4.70
2023-03-07T00:08:38.797Z,4.60
2023-03-07T00:11:08.939Z,4.60
2023-03-07T00:13:38.086Z,4.60
2023-03-07T00:16:07.993Z,4.60
2023-03-07T00:18:36.557Z,4.50
2023-03-07T00:21:09.518Z,4.40
2023-03-07T00:23:39.531Z,4.40
2023-03-07T00:26:15.069Z,4.40
2023-03-07T00:28:43.351Z,4.50
2023-03-07T00:31:11.858Z,4.60
2023-03-07T00:33:41.519Z,4.50
2023-03-07T00:36:13.470Z,4.40
2023-03-07T00:38:42.457Z,4.20
2023-03-07T00:41:18.152Z,4.20
2023-03-07T00:43:48.406Z,4.20
2023-03-07T00:46:17.871Z,4.30
2023-03-07T00:48:45.613Z,4.30
2023-03-07T00:51:15.557Z,4.40
2023-03-07T00:53:43.952Z,4.30
2023-03-07T00:56:17.989Z,4.30
2023-03-07T00:58:46.478Z,4.30
2023-03-07T01:01:16.376Z,4.10
2023-03-07T01:03:44.123Z,4.00
2023-03-07T01:07:01.539Z,3.70
2023-03-07T01:09:28.685Z,3.60
2023-03-07T01:11:56.058Z,3.60
2023-03-07T01:14:23.058Z,3.60
2023-03-07T01:16:50.459Z,3.70
2023-03-07T01:19:19.453Z,3.80
2023-03-07T01:21:46.458Z,3.70
2023-03-07T01:24:15.833Z,2.60
2023-03-07T01:27:04.533Z,1.30
2023-03-07T01:29:32.299Z,0.30
2023-03-07T01:31:59.306Z,-0.60
2023-03-07T01:34:26.999Z,-1.20
2023-03-07T01:36:53.974Z,-1.70
2023-03-07T01:39:21.114Z,-2.10
2023-03-07T01:41:48.214Z,-2.40
2023-03-07T01:44:20.429Z,-2.60
2023-03-07T01:46:52.943Z,-2.80
2023-03-07T01:49:30.291Z,-3.00
2023-03-07T01:52:25.917Z,-3.20
2023-03-07T01:54:57.940Z,-3.30
2023-03-07T01:57:32.485Z,-3.40
2023-03-07T02:00:06.420Z,-3.50
2023-03-07T02:02:34.560Z,-3.60
2023-03-07T02:05:10.984Z,-3.60
2023-03-07T02:07:47.248Z,-3.70
2023-03-07T02:10:17.757Z,-3.70
2023-03-07T02:12:45.744Z,-3.60
2023-03-07T02:15:14.818Z,-3.70
2023-03-07T02:17:43.225Z,-3.80
2023-03-07T02:20:47.983Z,-3.90
2023-03-07T02:23:23.930Z,-3.90
2023-03-07T02:25:59.553Z,-4.00
2023-03-07T02:28:27.713Z,-4.10
2023-03-07T02:30:56.141Z,-4.20
2023-03-07T02:33:25.198Z,-4.10
2023-03-07T02:36:14.914Z,-2.90
2023-03-07T02:38:46.082Z,-1.90
2023-03-07T02:41:15.650Z,-1.10
2023-03-07T02:43:43.101Z,-0.60
2023-03-07T02:46:10.202Z,-0.20
2023-03-07T02:48:37.770Z,0.00
2023-03-07T02:51:05.340Z,0.30
2023-03-07T02:53:32.334Z,0.60
2023-03-07T02:55:59.875Z,1.00
2023-03-07T02:58:26.890Z,1.30
2023-03-07T03:00:54.096Z,1.50
2023-03-07T03:03:21.594Z,1.70
2023-03-07T03:05:49.008Z,2.00
2023-03-07T03:08:16.064Z,2.10
2023-03-07T03:10:43.144Z,2.20
2023-03-07T03:13:10.297Z,2.30
2023-03-07T03:15:37.494Z,2.40
2023-03-07T03:18:05.544Z,2.50
2023-03-07T03:20:32.508Z,2.60
2023-03-07T03:22:59.493Z,2.60
2023-03-07T03:25:27.551Z,2.70
2023-03-07T03:27:54.563Z,2.70
2023-03-07T03:30:21.856Z,2.80
2023-03-07T03:32:48.936Z,2.80
2023-03-07T03:35:15.956Z,2.80
2023-03-07T03:37:42.915Z,2.80
2023-03-07T03:40:14.735Z,2.90
2023-03-07T03:42:43.004Z,3.00
2023-03-07T03:45:12.017Z,3.10
2023-03-07T03:47:39.044Z,3.10
2023-03-07T03:50:07.172Z,3.10
2023-03-07T03:52:36.602Z,3.20
2023-03-07T03:55:04.226Z,3.20
2023-03-07T03:57:31.564Z,3.20
2023-03-07T03:59:59.180Z,3.20
2023-03-07T04:02:27.150Z,3.20
2023-03-07T04:04:54.614Z,3.30
2023-03-07T04:07:22.892Z,3.30
2023-03-07T04:09:50.087Z,3.30
2023-03-07T04:12:17.257Z,3.30
2023-03-07T04:14:44.255Z,3.30
2023-03-07T04:17:11.215Z,3.20
2023-03-07T04:19:38.766Z,3.20
2023-03-07T04:22:06.171Z,3.20
2023-03-07T04:24:33.175Z,3.20
2023-03-07T04:27:00.240Z,3.20
2023-03-07T04:29:27.677Z,3.20
2023-03-07T04:31:54.670Z,3.20
2023-03-07T04:34:22.073Z,3.20
2023-03-07T04:36:49.145Z,3.20
2023-03-07T04:39:16.372Z,3.20
2023-03-07T04:41:43.372Z,3.20
2023-03-07T04:44:10.753Z,3.20
2023-03-07T04:46:37.971Z,3.20
2023-03-07T04:49:05.445Z,3.10
2023-03-07T04:51:32.877Z,3.10
2023-03-07T04:54:00.096Z,3.20
2023-03-07T04:56:27.315Z,3.20
2023-03-07T04:58:54.489Z,3.30
2023-03-07T05:01:21.775Z,3.30
2023-03-07T05:03:48.830Z,3.40
2023-03-07T05:06:16.910Z,3.50
2023-03-07T05:08:44.596Z,3.50
2023-03-07T05:11:12.191Z,3.50
2023-03-07T05:13:39.260Z,3.50
2023-03-07T05:16:07.093Z,3.50
2023-03-07T05:18:34.569Z,3.30
2023-03-07T05:21:01.700Z,3.30
2023-03-07T05:23:30.334Z,3.30
2023-03-07T05:25:57.646Z,3.40
2023-03-07T05:28:24.868Z,3.40
2023-03-07T05:30:52.739Z,3.30
2023-03-07T05:33:20.421Z,3.20
2023-03-07T05:35:48.356Z,3.20
2023-03-07T05:38:15.464Z,3.10
2023-03-07T05:40:42.575Z,3.10
2023-03-07T05:43:10.083Z,3.10
2023-03-07T05:45:37.760Z,3.20
2023-03-07T05:48:05.312Z,3.20
2023-03-07T05:50:32.309Z,3.30
2023-03-07T05:52:59.566Z,3.30
2023-03-07T05:55:27.092Z,3.30
2023-03-07T05:57:54.596Z,3.30
2023-03-07T06:00:23.246Z,3.30
2023-03-07T06:02:50.355Z,3.40
2023-03-07T06:05:17.553Z,3.30
2023-03-07T06:07:45.601Z,3.20
2023-03-07T06:10:13.214Z,3.20
2023-03-07T06:12:40.254Z,3.10
2023-03-07T06:15:09.990Z,3.20
2023-03-07T06:17:37.861Z,3.20
2023-03-07T06:20:06.637Z,3.10
2023-03-07T06:22:35.415Z,3.10
2023-03-07T06:25:02.430Z,3.10
2023-03-07T06:27:33.621Z,3.20
2023-03-07T06:30:00.857Z,3.10
2023-03-07T06:32:28.072Z,3.00
2023-03-07T06:34:55.552Z,3.10
2023-03-07T06:37:22.508Z,3.10
2023-03-07T06:39:49.712Z,3.20
2023-03-07T06:42:16.763Z,3.10
2023-03-07T06:44:44.136Z,3.10
2023-03-07T06:47:11.552Z,3.20
2023-03-07T06:49:38.769Z,3.10
2023-03-07T06:52:07.072Z,3.00
2023-03-07T06:54:34.567Z,2.90
2023-03-07T06:57:01.576Z,2.80
2023-03-07T06:59:28.577Z,2.80
2023-03-07T07:01:55.813Z,2.80
2023-03-07T07:04:23.042Z,2.80
2023-03-07T07:06:50.153Z,2.80
2023-03-07T07:09:17.632Z,2.80
2023-03-07T07:11:44.592Z,2.80
2023-03-07T07:14:11.651Z,2.80
2023-03-07T07:16:39.056Z,2.80
2023-03-07T07:19:07.075Z,3.00
2023-03-07T07:21:34.065Z,3.00
2023-03-07T07:24:01.098Z,3.10
2023-03-07T07:26:28.688Z,3.20
2023-03-07T07:28:55.880Z,3.20
2023-03-07T07:31:23.259Z,3.20
2023-03-07T07:33:50.272Z,3.30
2023-03-07T07:36:17.556Z,3.20
2023-03-07T07:38:45.105Z,3.20
2023-03-07T07:41:12.432Z,3.20
2023-03-07T07:43:39.732Z,3.10
2023-03-07T07:46:06.852Z,3.10
2023-03-07T07:48:34.234Z,3.10
2023-03-07T07:51:04.974Z,3.10
2023-03-07T07:53:32.441Z,3.10
2023-03-07T07:55:59.475Z,3.10
2023-03-07T07:58:26.992Z,3.00
2023-03-07T08:00:54.202Z,3.10
2023-03-07T08:03:22.106Z,3.10
2023-03-07T08:05:49.841Z,3.10
2023-03-07T08:08:18.487Z,3.10
2023-03-07T08:10:49.648Z,3.10
2023-03-07T08:13:18.306Z,3.20
2023-03-07T08:15:45.585Z,3.30
2023-03-07T08:18:12.801Z,2.70
2023-03-07T08:20:41.542Z,2.10
2023-03-07T08:23:09.166Z,2.00
2023-03-07T08:25:36.646Z,1.40
2023-03-07T08:28:05.776Z,1.40
2023-03-07T08:30:34.615Z,1.40
2023-03-07T08:33:02.414Z,1.50
2023-03-07T08:35:32.125Z,1.10
2023-03-07T08:38:00.719Z,0.90
2023-03-07T08:40:30.461Z,0.60
2023-03-07T08:42:59.850Z,0.00
2023-03-07T08:45:27.055Z,-0.40
2023-03-07T08:47:55.637Z,-0.70
2023-03-07T08:50:28.321Z,-1.10
2023-03-07T08:52:55.753Z,-1.70
2023-03-07T08:55:22.764Z,-2.20
2023-03-07T08:57:50.003Z,-2.00
2023-03-07T09:00:18.234Z,-1.60
2023-03-07T09:02:45.748Z,-1.70
2023-03-07T09:05:13.014Z,-1.90
2023-03-07T09:07:40.186Z,-1.40
2023-03-07T09:10:07.647Z,-0.60
2023-03-07T09:12:34.840Z,0.10
2023-03-07T09:15:02.071Z,0.80
2023-03-07T09:17:29.082Z,1.30
2023-03-07T09:19:56.686Z,1.50
2023-03-07T09:22:23.715Z,1.80
2023-03-07T09:24:50.699Z,2.00
2023-03-07T09:27:17.701Z,2.10
2023-03-07T09:29:45.215Z,2.30
2023-03-07T09:32:12.275Z,2.50
2023-03-07T09:34:39.758Z,2.60
2023-03-07T09:37:07.671Z,2.70
2023-03-07T09:39:34.655Z,2.80
2023-03-07T09:42:25.344Z,2.90
2023-03-07T09:45:18.815Z,3.00
2023-03-07T09:47:58.041Z,3.10
2023-03-07T09:50:45.341Z,3.10
2023-03-07T09:53:30.691Z,3.10
2023-03-07T09:56:01.622Z,3.10
2023-03-07T09:58:28.620Z,3.20
2023-03-07T10:01:00.033Z,3.30
2023-03-07T10:03:41.149Z,3.30
2023-03-07T10:06:13.771Z,3.40
2023-03-07T10:08:41.256Z,2.90
2023-03-07T10:11:14.328Z,1.80
2023-03-07T10:13:59.851Z,1.00
2023-03-07T10:17:00.526Z,0.50
2023-03-07T10:19:31.088Z,0.20
2023-03-07T10:22:15.791Z,0.10
2023-03-07T10:24:57.861Z,0.00
2023-03-07T10:27:29.045Z,0.30
2023-03-07T10:29:59.374Z,0.70
2023-03-07T10:32:50.211Z,1.20
2023-03-07T10:35:21.220Z,1.70
2023-03-07T10:37:58.784Z,2.10
2023-03-07T10:40:27.889Z,2.40
2023-03-07T10:42:57.053Z,2.60
2023-03-07T10:45:25.212Z,2.70
2023-03-07T10:47:52.168Z,2.80
2023-03-07T10:50:51.425Z,2.90
2023-03-07T10:53:27.542Z,3.10
2023-03-07T10:56:13.611Z,3.20
2023-03-07T10:58:57.894Z,3.30
2023-03-07T11:01:27.637Z,3.20
2023-03-07T11:04:20.254Z,3.20
2023-03-07T11:06:57.050Z,3.30
2023-03-07T11:09:36.200Z,3.40
2023-03-07T11:12:06.603Z,3.50
2023-03-07T11:15:00.508Z,3.60
2023-03-07T11:17:45.787Z,3.40
2023-03-07T11:20:30.308Z,3.40
2023-03-07T11:23:19.205Z,3.40
2023-03-07T11:25:46.387Z,3.50
2023-03-07T11:28:33.820Z,3.60
2023-03-07T11:31:24.080Z,3.40
2023-03-07T11:34:14.039Z,3.40
2023-03-07T11:36:44.517Z,3.50
2023-03-07T11:39:36.548Z,3.70
2023-03-07T11:42:25.612Z,3.70
2023-03-07T11:45:27.972Z,3.80
2023-03-07T11:48:31.649Z,3.90
2023-03-07T11:51:00.247Z,3.90
2023-03-07T11:53:54.445Z,4.00
2023-03-07T11:56:21.636Z,3.90
2023-03-07T11:59:10.473Z,3.70
2023-03-07T12:02:00.099Z,3.40
2023-03-07T12:05:09.446Z,3.30
2023-03-07T12:07:39.184Z,3.10
2023-03-07T12:10:29.245Z,3.30
2023-03-07T12:12:59.655Z,3.20
2023-03-07T12:15:33.201Z,3.20
2023-03-07T12:18:15.460Z,3.30
2023-03-07T12:21:19.997Z,3.30
2023-03-07T12:23:53.595Z,3.40
2023-03-07T12:26:45.541Z,3.40
2023-03-07T12:29:21.479Z,3.50
2023-03-07T12:31:53.525Z,3.70
2023-03-07T12:34:45.646Z,3.90
2023-03-07T12:37:40.231Z,3.90
2023-03-07T12:40:33.103Z,4.00
2023-03-07T12:43:11.468Z,4.00
2023-03-07T12:46:01.040Z,4.00
2023-03-07T12:48:37.564Z,4.10
2023-03-07T12:51:15.709Z,4.10
2023-03-07T12:54:15.057Z,4.10
2023-03-07T12:57:03.941Z,4.20
2023-03-07T12:59:36.804Z,4.30
2023-03-07T13:02:11.944Z,4.30
2023-03-07T13:04:42.782Z,4.30
2023-03-07T13:07:12.854Z,4.40
2023-03-07T13:09:42.960Z,4.50
2023-03-07T13:12:20.586Z,4.30
2023-03-07T13:14:57.968Z,4.30
2023-03-07T13:17:31.021Z,4.30
2023-03-07T13:19:59.195Z,4.30
2023-03-07T13:22:26.556Z,4.40
2023-03-07T13:25:17.368Z,4.30
2023-03-07T13:27:54.069Z,4.30
2023-03-07T13:30:23.521Z,4.40
2023-03-07T13:32:56.262Z,4.50
2023-03-07T13:35:32.171Z,4.60
2023-03-07T13:38:15.045Z,4.60
2023-03-07T13:40:45.294Z,4.60
2023-03-07T13:43:27.277Z,4.60
2023-03-07T13:45:58.525Z,4.60
2023-03-07T13:48:28.838Z,4.60
2023-03-07T13:50:56.201Z,4.60
2023-03-07T13:53:32.036Z,4.60
2023-03-07T13:56:17.250Z,4.60
2023-03-07T13:59:04.145Z,4.60
2023-03-07T14:01:43.196Z,4.50
2023-03-07T14:04:36.802Z,4.50
2023-03-07T14:07:21.664Z,4.50
2023-03-07T14:09:57.089Z,4.50
2023-03-07T14:12:52.486Z,4.50
2023-03-07T14:15:33.890Z,4.50
2023-03-07T14:18:28.941Z,4.40
2023-03-07T14:21:18.328Z,4.30
2023-03-07T14:24:12.923Z,4.10
2023-03-07T14:26:49.628Z,3.90
2023-03-07T14:29:23.104Z,3.80
2023-03-07T14:31:53.685Z,3.60
2023-03-07T14:34:33.855Z,3.60
2023-03-07T14:37:07.059Z,3.80
2023-03-07T14:39:43.388Z,3.80
2023-03-07T14:42:40.316Z,3.80
2023-03-07T14:45:42.267Z,3.80
2023-03-07T14:48:46.377Z,3.80
2023-03-07T14:51:20.868Z,3.80
2023-03-07T14:53:49.485Z,3.80
2023-03-07T14:56:30.736Z,2.70
2023-03-07T14:59:03.783Z,1.40
2023-03-07T15:01:37.202Z,0.30
2023-03-07T15:04:21.434Z,-0.50
2023-03-07T15:06:54.703Z,-1.10
2023-03-07T15:09:22.747Z,-1.60
2023-03-07T15:11:57.769Z,-1.80
2023-03-07T15:14:55.051Z,-2.00
2023-03-07T15:17:34.823Z,-2.10
2023-03-07T15:20:27.761Z,-2.30
2023-03-07T15:23:08.143Z,-2.20
2023-03-07T15:25:39.063Z,-2.40
2023-03-07T15:28:18.778Z,-2.50
2023-03-07T15:30:53.698Z,-2.80
2023-03-07T15:33:20.998Z,-3.10
2023-03-07T15:36:13.062Z,-2.80
2023-03-07T15:38:49.162Z,-3.00
2023-03-07T15:41:29.744Z,-3.20
2023-03-07T15:44:11.756Z,-3.40
2023-03-07T15:47:00.654Z,-3.50
2023-03-07T15:49:42.639Z,-3.60
2023-03-07T15:52:22.585Z,-3.60
2023-03-07T15:54:52.115Z,-3.70
2023-03-07T15:57:30.738Z,-3.80
2023-03-07T16:00:01.854Z,-3.70
2023-03-07T16:02:32.184Z,-2.60
2023-03-07T16:05:07.582Z,-1.50
2023-03-07T16:07:35.128Z,-0.90
2023-03-07T16:10:02.068Z,-0.40
2023-03-07T16:12:29.183Z,0.10
2023-03-07T16:15:04.146Z,0.40
2023-03-07T16:17:38.558Z,0.70
2023-03-07T16:20:17.983Z,0.90
2023-03-07T16:22:50.084Z,1.10
2023-03-07T16:25:17.579Z,1.30
2023-03-07T16:27:53.384Z,1.50
2023-03-07T16:30:26.614Z,1.70
2023-03-07T16:32:54.416Z,1.90
2023-03-07T16:35:27.118Z,2.00
2023-03-07T16:37:55.419Z,2.10
2023-03-07T16:40:23.045Z,2.30
2023-03-07T16:42:50.807Z,2.50
2023-03-07T16:45:27.015Z,2.50
2023-03-07T16:47:57.937Z,2.60
2023-03-07T16:50:33.973Z,2.60
2023-03-07T16:53:01.235Z,2.70
2023-03-07T16:55:28.970Z,2.80
2023-03-07T16:57:59.931Z,2.80
2023-03-07T17:00:28.406Z,2.90
2023-03-07T17:02:59.306Z,2.90
2023-03-07T17:05:30.614Z,2.90
2023-03-07T17:07:59.196Z,3.00
2023-03-07T17:10:27.733Z,2.90
2023-03-07T17:12:57.130Z,2.90
2023-03-07T17:15:31.202Z,2.90
2023-03-07T17:17:59.742Z,3.00
2023-03-07T17:20:29.203Z,3.00
2023-03-07T17:22:56.275Z,2.90
2023-03-07T17:25:24.405Z,3.00
2023-03-07T17:28:13.985Z,3.00
2023-03-07T17:30:45.096Z,3.10
2023-03-07T17:33:12.375Z,3.10
2023-03-07T17:35:39.426Z,3.10
2023-03-07T17:38:07.034Z,3.10
2023-03-07T17:40:34.151Z,3.20
2023-03-07T17:43:01.176Z,3.20
2023-03-07T17:45:28.448Z,3.10
2023-03-07T17:47:57.429Z,3.00
2023-03-07T17:50:24.775Z,3.10
2023-03-07T17:52:56.153Z,3.10
2023-03-07T17:55:27.023Z,3.00
2023-03-07T17:57:54.316Z,3.00
2023-03-07T18:00:21.719Z,3.10
2023-03-07T18:02:49.235Z,3.10
2023-03-07T18:05:16.357Z,3.20
2023-03-07T18:07:43.378Z,3.10
2023-03-07T18:10:12.720Z,3.10
2023-03-07T18:12:41.159Z,3.00
2023-03-07T18:15:19.560Z,3.00
2023-03-07T18:17:49.651Z,3.10
2023-03-07T18:20:18.924Z,3.20
2023-03-07T18:22:46.302Z,3.20
2023-03-07T18:25:15.930Z,3.20
2023-03-07T18:27:43.598Z,3.20
2023-03-07T18:30:12.483Z,3.20
2023-03-07T18:32:39.584Z,3.10
2023-03-07T18:35:08.401Z,3.10
2023-03-07T18:37:35.683Z,3.10
2023-03-07T18:40:04.485Z,3.10
2023-03-07T18:42:31.825Z,3.10
2023-03-07T18:44:58.888Z,3.10
2023-03-07T18:47:26.408Z,3.20
2023-03-07T18:49:53.542Z,3.20
2023-03-07T18:52:20.531Z,3.20
2023-03-07T18:54:49.965Z,3.20
2023-03-07T18:57:16.949Z,3.20
2023-03-07T18:59:44.003Z,3.20
2023-03-07T19:02:11.736Z,3.20
2023-03-07T19:04:39.014Z,3.10
2023-03-07T19:07:07.230Z,3.10
2023-03-07T19:09:34.275Z,3.10
2023-03-07T19:12:01.395Z,3.10
2023-03-07T19:14:28.572Z,3.10
2023-03-07T19:16:55.716Z,3.10
2023-03-07T19:19:23.095Z,3.10
2023-03-07T19:21:50.110Z,3.10
2023-03-07T19:24:17.489Z,3.10
2023-03-07T19:26:45.184Z,3.10
2023-03-07T19:29:13.415Z,3.10
2023-03-07T19:31:44.069Z,3.10
2023-03-07T19:34:11.506Z,3.20
2023-03-07T19:36:42.210Z,3.20
2023-03-07T19:39:15.437Z,3.20
2023-03-07T19:41:45.042Z,3.20
2023-03-07T19:44:12.689Z,3.30
2023-03-07T19:46:43.094Z,3.30
2023-03-07T19:49:10.114Z,3.20
2023-03-07T19:51:37.965Z,3.30
2023-03-07T19:54:05.660Z,3.30
2023-03-07T19:56:33.358Z,3.40
2023-03-07T19:59:02.260Z,3.40
2023-03-07T20:01:30.455Z,3.40
2023-03-07T20:03:58.777Z,3.40
2023-03-07T20:06:31.425Z,3.40
2023-03-07T20:09:00.254Z,3.40
2023-03-07T20:11:29.898Z,3.40
2023-03-07T20:13:59.558Z,3.40
2023-03-07T20:16:29.939Z,3.40
2023-03-07T20:19:00.095Z,3.40
2023-03-07T20:21:29.162Z,3.40
2023-03-07T20:24:00.300Z,3.40
2023-03-07T20:26:37.406Z,3.40
2023-03-07T20:29:07.725Z,3.30
2023-03-07T20:31:36.558Z,3.20
2023-03-07T20:34:04.160Z,3.20
2023-03-07T20:36:37.315Z,3.20
2023-03-07T20:39:08.207Z,3.20
2023-03-07T20:41:35.915Z,3.20
2023-03-07T20:44:05.742Z,3.10
2023-03-07T20:46:34.518Z,3.10
2023-03-07T20:49:03.257Z,3.10
2023-03-07T20:51:34.113Z,3.10
2023-03-07T20:54:03.864Z,3.10
2023-03-07T20:56:34.133Z,3.10
2023-03-07T20:59:02.212Z,3.00
2023-03-07T21:01:32.052Z,3.00
2023-03-07T21:04:06.540Z,3.00
2023-03-07T21:06:38.065Z,2.90
2023-03-07T21:09:08.700Z,2.10
2023-03-07T21:11:37.746Z,0.90
2023-03-07T21:14:04.948Z,-0.30
2023-03-07T21:16:33.350Z,-1.20
2023-03-07T21:19:02.450Z,-1.80
2023-03-07T21:21:30.899Z,-2.20
2023-03-07T21:23:58.151Z,-2.60
2023-03-07T21:26:28.281Z,-3.00
2023-03-07T21:28:57.360Z,-3.30
2023-03-07T21:31:27.276Z,-3.50
2023-03-07T21:34:03.887Z,-3.70
2023-03-07T21:36:34.382Z,-3.90
2023-03-07T21:39:04.659Z,-4.00
2023-03-07T21:41:32.008Z,-4.10
2023-03-07T21:43:59.381Z,-4.30
2023-03-07T21:46:26.987Z,-4.40
2023-03-07T21:48:54.598Z,-4.50
2023-03-07T21:51:22.447Z,-4.40
2023-03-07T21:53:49.827Z,-4.40
2023-03-07T21:56:18.061Z,-4.30
2023-03-07T21:58:49.934Z,-4.20
2023-03-07T22:01:22.770Z,-4.00
2023-03-07T22:03:54.852Z,-4.00
2023-03-07T22:06:23.176Z,-4.10
2023-03-07T22:08:50.173Z,-4.20
2023-03-07T22:11:17.150Z,-4.20
2023-03-07T22:13:44.723Z,-4.10
2023-03-07T22:16:15.418Z,-4.20
2023-03-07T22:18:42.927Z,-3.70
2023-03-07T22:21:17.556Z,-2.50
2023-03-07T22:23:44.821Z,-2.50
2023-03-07T22:26:12.531Z,-2.80
2023-03-07T22:28:41.425Z,-3.00
2023-03-07T22:31:11.201Z,-3.00
2023-03-07T22:33:39.073Z,-3.00
2023-03-07T22:36:08.396Z,-3.00
2023-03-07T22:38:35.801Z,-2.90
2023-03-07T22:41:09.950Z,-2.90
2023-03-07T22:43:38.009Z,-2.90
2023-03-07T22:46:06.734Z,-3.00
2023-03-07T22:48:34.025Z,-3.00
2023-03-07T22:51:01.893Z,-3.10
2023-03-07T22:53:33.714Z,-3.10
2023-03-07T22:56:02.008Z,-3.10
2023-03-07T22:58:30.197Z,-3.00
2023-03-07T23:00:57.325Z,-2.90
2023-03-07T23:03:25.028Z,-2.80
2023-03-07T23:05:52.093Z,-2.70
2023-03-07T23:08:19.476Z,-2.60
2023-03-07T23:10:46.921Z,-2.40
2023-03-07T23:13:16.728Z,-2.10
2023-03-07T23:15:44.391Z,-1.70
2023-03-07T23:18:11.391Z,-1.30
2023-03-07T23:20:39.177Z,-1.00
2023-03-07T23:23:06.724Z,-0.80
2023-03-07T23:25:34.120Z,-0.50
2023-03-07T23:28:01.925Z,-0.30
2023-03-07T23:30:29.259Z,-0.10
2023-03-07T23:32:56.290Z,0.20
2023-03-07T23:35:24.376Z,0.50
2023-03-07T23:37:51.411Z,0.60
2023-03-07T23:40:18.680Z,0.60
2023-03-07T23:42:45.687Z,0.70
2023-03-07T23:45:13.154Z,0.90
2023-03-07T23:47:40.952Z,1.00
2023-03-07T23:50:10.056Z,1.10
2023-03-07T23:52:37.431Z,1.20
2023-03-07T23:55:09.042Z,1.20
2023-03-07T23:57:37.487Z,1.20
